Alvarado, Minnesota
Current Conditions -  °F | °C
As of 8:53 PM on Monday 20 Oct 2014 (Local Time) from KGFK Reporting Station
Clear Clear  
Wind Chill:   Ceiling: Unl
Heat Index:   Visibility: 10mi
Dew Point:   Wind: 8mph
Humidity: 76%   Direction: 120°ESE
Pressure: 30.03"   Gusts: NA
Location:  48.19°N, 97°W
Report Text: KGFK 210153Z 12007KT 10SM CLR 08/04 A3003 RMK AO2 SLP177 T00780039
Loading
Personal Weather Stations






























Interactive Weather Map
Tropical Storm Tracking
New forecast layout! Learn more

10-Day Weather Forecast

Advertisements
Track Severe Weather on mobile